TimeEST,TemperatureF,Dew PointF,Humidity,Sea Level PressureIn,VisibilityMPH,Wind Direction,Wind SpeedMPH,Gust SpeedMPH,PrecipitationIn,Events,Conditions,WindDirDegrees,DateUTC
12:53 AM,30.9,23.0,72,30.54,10.0,ENE,6.9,-,N/A,,Clear,60,2012-11-14 05:53:00
1:53 AM,30.9,24.1,76,30.54,10.0,ENE,6.9,-,N/A,,Clear,60,2012-11-14 06:53:00
2:53 AM,30.0,24.1,79,30.54,10.0,ENE,8.1,-,N/A,,Clear,60,2012-11-14 07:53:00
3:53 AM,28.9,24.1,82,30.54,10.0,ENE,8.1,-,N/A,,Clear,60,2012-11-14 08:53:00
4:53 AM,28.0,24.1,85,30.54,10.0,NE,8.1,-,N/A,,Clear,50,2012-11-14 09:53:00
5:53 AM,28.9,24.1,82,30.57,10.0,NE,8.1,-,N/A,,Clear,40,2012-11-14 10:53:00
6:53 AM,28.0,23.0,81,30.57,10.0,NE,6.9,-,N/A,,Clear,50,2012-11-14 11:53:00
7:53 AM,30.0,23.0,75,30.58,10.0,NE,9.2,-,N/A,,Partly Cloudy,50,2012-11-14 12:53:00
8:23 AM,30.2,23.0,75,30.53,10.0,NE,6.9,-,N/A,,Mostly Cloudy,50,2012-11-14 13:23:00
8:53 AM,32.0,24.1,73,30.58,10.0,NE,8.1,-,N/A,,Overcast,50,2012-11-14 13:53:00
9:53 AM,33.1,25.0,72,30.58,10.0,NE,3.5,-,N/A,,Overcast,40,2012-11-14 14:53:00
10:53 AM,35.1,25.0,67,30.58,10.0,ENE,8.1,-,N/A,,Overcast,70,2012-11-14 15:53:00
11:53 AM,35.1,24.1,64,30.55,10.0,East,10.4,-,N/A,,Overcast,90,2012-11-14 16:53:00
12:53 PM,36.0,24.1,62,30.53,10.0,ENE,5.8,-,N/A,,Scattered Clouds,60,2012-11-14 17:53:00
1:22 PM,37.4,24.8,60,30.47,10.0,NE,6.9,-,N/A,,Mostly Cloudy,40,2012-11-14 18:22:00
1:29 PM,37.4,24.8,60,30.46,10.0,NE,10.4,-,N/A,,Scattered Clouds,40,2012-11-14 18:29:00
1:53 PM,37.9,24.1,57,30.51,10.0,ENE,9.2,-,N/A,,Partly Cloudy,70,2012-11-14 18:53:00
2:53 PM,37.9,24.1,57,30.48,10.0,ENE,9.2,-,N/A,,Clear,60,2012-11-14 19:53:00
3:53 PM,37.9,24.1,57,30.48,10.0,ENE,8.1,-,N/A,,Clear,60,2012-11-14 20:53:00
4:53 PM,35.1,24.1,64,30.47,10.0,NE,5.8,-,N/A,,Clear,50,2012-11-14 21:53:00
5:53 PM,34.0,23.0,64,30.46,10.0,ENE,9.2,-,N/A,,Clear,70,2012-11-14 22:53:00
6:53 PM,34.0,23.0,64,30.47,10.0,NNE,4.6,-,N/A,,Clear,30,2012-11-14 23:53:00
7:53 PM,34.0,23.0,64,30.47,10.0,ENE,5.8,-,N/A,,Clear,60,2012-11-15 00:53:00
8:53 PM,33.1,23.0,66,30.45,10.0,NE,9.2,-,N/A,,Clear,50,2012-11-15 01:53:00
9:53 PM,33.1,23.0,66,30.44,10.0,ENE,8.1,-,N/A,,Clear,70,2012-11-15 02:53:00
10:53 PM,32.0,23.0,69,30.42,10.0,ENE,5.8,-,N/A,,Clear,70,2012-11-15 03:53:00
11:53 PM,32.0,23.0,69,30.40,10.0,East,5.8,-,N/A,,Clear,80,2012-11-15 04:53:00